createdAt,value
2023-06-09T00:01:32.032Z,18.03
2023-06-09T00:03:58.937Z,18.01
2023-06-09T00:06:25.611Z,17.99
2023-06-09T00:08:52.334Z,17.95
2023-06-09T00:11:19.977Z,17.94
2023-06-09T00:13:46.853Z,17.90
2023-06-09T00:16:13.377Z,17.91
2023-06-09T00:18:41.345Z,17.90
2023-06-09T00:21:07.935Z,17.88
2023-06-09T00:23:35.229Z,17.88
2023-06-09T00:26:02.023Z,17.90
2023-06-09T00:28:28.913Z,17.89
2023-06-09T00:30:55.505Z,17.85
2023-06-09T00:33:22.111Z,17.83
2023-06-09T00:35:50.320Z,17.81
2023-06-09T00:38:16.903Z,17.80
2023-06-09T00:40:43.451Z,17.74
2023-06-09T00:43:09.939Z,17.71
2023-06-09T00:45:36.422Z,17.60
2023-06-09T00:48:03.061Z,17.54
2023-06-09T00:50:31.043Z,17.52
2023-06-09T00:52:59.340Z,17.53
2023-06-09T00:55:27.375Z,17.52
2023-06-09T00:57:57.312Z,17.47
2023-06-09T01:00:28.632Z,17.48
2023-06-09T01:03:03.286Z,17.48
2023-06-09T01:05:33.806Z,17.49
2023-06-09T01:08:24.845Z,17.49
2023-06-09T01:10:54.358Z,17.48
2023-06-09T01:13:54.733Z,17.45
2023-06-09T01:16:28.739Z,17.47
2023-06-09T01:18:58.577Z,17.45
2023-06-09T01:21:50.130Z,17.44
2023-06-09T01:24:31.474Z,17.42
2023-06-09T01:27:04.098Z,17.41
2023-06-09T01:29:33.853Z,17.41
2023-06-09T01:32:03.744Z,17.35
2023-06-09T01:34:31.640Z,17.38
2023-06-09T01:36:59.229Z,17.42
2023-06-09T01:39:27.277Z,17.41
2023-06-09T01:41:54.009Z,17.41
2023-06-09T01:44:20.603Z,17.35
2023-06-09T01:46:47.192Z,17.33
2023-06-09T01:49:30.801Z,17.32
2023-06-09T01:52:25.433Z,17.29
2023-06-09T01:55:01.245Z,17.22
2023-06-09T01:57:34.059Z,17.23
2023-06-09T02:00:04.886Z,17.20
2023-06-09T02:02:34.304Z,17.18
2023-06-09T02:05:04.239Z,17.13
2023-06-09T02:07:31.965Z,17.10
2023-06-09T02:09:58.728Z,17.10
2023-06-09T02:12:31.766Z,17.07
2023-06-09T02:14:58.313Z,17.07
2023-06-09T02:17:24.907Z,17.06
2023-06-09T02:19:51.415Z,17.04
2023-06-09T02:22:17.910Z,17.04
2023-06-09T02:24:44.409Z,17.00
2023-06-09T02:27:11.031Z,16.96
2023-06-09T02:29:37.583Z,16.95
2023-06-09T02:32:04.475Z,16.91
2023-06-09T02:34:32.194Z,16.92
2023-06-09T02:37:00.432Z,16.93
2023-06-09T02:39:26.966Z,16.90
2023-06-09T02:41:53.521Z,16.85
2023-06-09T02:44:20.123Z,16.84
2023-06-09T02:46:46.692Z,16.83
2023-06-09T02:49:13.248Z,16.77
2023-06-09T02:51:39.799Z,16.77
2023-06-09T02:54:06.323Z,16.76
2023-06-09T02:56:32.854Z,16.71
2023-06-09T02:58:59.750Z,16.68
2023-06-09T03:01:28.257Z,16.65
2023-06-09T03:03:55.166Z,16.63
2023-06-09T03:06:21.720Z,16.56
2023-06-09T03:08:48.243Z,16.49
2023-06-09T03:11:14.841Z,16.46
2023-06-09T03:13:41.338Z,16.44
2023-06-09T03:16:08.431Z,16.42
2023-06-09T03:18:34.916Z,16.40
2023-06-09T03:21:05.400Z,16.37
2023-06-09T03:23:34.684Z,16.33
2023-06-09T03:26:01.172Z,16.29
2023-06-09T03:28:27.958Z,16.26
2023-06-09T03:30:56.003Z,16.22
2023-06-09T03:33:23.905Z,16.21
2023-06-09T03:35:50.793Z,16.21
2023-06-09T03:38:17.656Z,16.19
2023-06-09T03:40:44.444Z,16.11
2023-06-09T03:43:12.308Z,16.13
2023-06-09T03:45:39.180Z,16.13
2023-06-09T03:48:07.535Z,16.10
2023-06-09T03:50:34.574Z,16.10
2023-06-09T03:53:01.473Z,16.10
2023-06-09T03:55:32.384Z,16.10
2023-06-09T03:57:58.962Z,16.12
2023-06-09T04:00:25.557Z,16.11
2023-06-09T04:02:52.078Z,16.08
2023-06-09T04:05:18.676Z,16.08
2023-06-09T04:07:45.421Z,16.09
2023-06-09T04:10:12.003Z,16.10
2023-06-09T04:12:39.252Z,16.10
2023-06-09T04:15:07.839Z,16.10
2023-06-09T04:17:35.326Z,16.10
2023-06-09T04:20:05.863Z,16.07
2023-06-09T04:22:32.705Z,16.08
2023-06-09T04:24:59.192Z,16.10
2023-06-09T04:27:26.858Z,16.09
2023-06-09T04:29:53.414Z,16.09
2023-06-09T04:32:20.320Z,16.11
2023-06-09T04:34:47.833Z,16.09
2023-06-09T04:37:15.174Z,16.12
2023-06-09T04:39:46.606Z,16.17
2023-06-09T04:42:13.538Z,16.21
2023-06-09T04:44:41.416Z,16.28
2023-06-09T04:47:11.750Z,16.31
2023-06-09T04:49:38.709Z,16.35
2023-06-09T04:52:08.654Z,16.40
2023-06-09T04:54:35.374Z,16.46
2023-06-09T04:57:03.338Z,16.42
2023-06-09T04:59:29.968Z,16.47
2023-06-09T05:01:56.673Z,16.53
2023-06-09T05:04:23.214Z,16.59
2023-06-09T05:06:49.921Z,16.66
2023-06-09T05:09:16.714Z,16.72
2023-06-09T05:11:43.200Z,16.75
2023-06-09T05:14:09.754Z,16.78
2023-06-09T05:16:36.382Z,16.81
2023-06-09T05:19:03.355Z,16.86
2023-06-09T05:21:30.041Z,16.95
2023-06-09T05:23:56.805Z,17.01
2023-06-09T05:26:23.524Z,17.05
2023-06-09T05:28:50.287Z,17.07
2023-06-09T05:31:17.840Z,17.12
2023-06-09T05:33:45.187Z,17.18
2023-06-09T05:36:13.298Z,17.18
2023-06-09T05:38:39.972Z,17.26
2023-06-09T05:41:06.856Z,17.28
2023-06-09T05:43:33.558Z,17.32
2023-06-09T05:46:00.636Z,17.34
2023-06-09T05:48:27.162Z,17.38
2023-06-09T05:50:53.744Z,17.42
2023-06-09T05:53:20.331Z,17.50
2023-06-09T05:55:47.102Z,17.54
2023-06-09T05:58:15.139Z,17.61
2023-06-09T06:00:42.740Z,17.65
2023-06-09T06:03:11.667Z,17.71
2023-06-09T06:05:39.063Z,17.71
2023-06-09T06:08:07.369Z,17.82
2023-06-09T06:10:33.959Z,17.89
2023-06-09T06:13:03.260Z,17.96
2023-06-09T06:15:29.871Z,18.01
2023-06-09T06:17:56.539Z,18.05
2023-06-09T06:20:23.102Z,18.12
2023-06-09T06:22:49.981Z,18.20
2023-06-09T06:25:18.801Z,18.23
2023-06-09T06:27:48.160Z,18.32
2023-06-09T06:30:15.899Z,18.41
2023-06-09T06:32:54.098Z,18.48
2023-06-09T06:35:28.367Z,18.55
2023-06-09T06:37:55.698Z,18.66
2023-06-09T06:40:22.752Z,18.76
2023-06-09T06:42:49.338Z,18.88
2023-06-09T06:45:16.755Z,18.97
2023-06-09T06:47:44.710Z,18.97
2023-06-09T06:50:11.413Z,19.12
2023-06-09T06:52:38.139Z,19.19
2023-06-09T06:55:08.481Z,19.19
2023-06-09T06:57:36.340Z,19.23
2023-06-09T07:02:52.105Z,19.34
2023-06-09T07:05:18.958Z,19.41
2023-06-09T07:07:46.876Z,19.46
2023-06-09T07:10:14.185Z,19.56
2023-06-09T07:12:42.609Z,19.60
2023-06-09T07:15:09.718Z,19.72
2023-06-09T07:17:36.398Z,19.80
2023-06-09T07:20:03.598Z,19.87
2023-06-09T07:22:30.163Z,20.01
2023-06-09T07:24:57.273Z,20.15
2023-06-09T07:27:23.805Z,20.24
2023-06-09T07:29:50.323Z,20.37
2023-06-09T07:32:17.672Z,20.51
2023-06-09T07:34:46.414Z,20.64
2023-06-09T07:37:14.572Z,20.71
2023-06-09T07:39:41.156Z,20.75
2023-06-09T07:42:08.017Z,20.75
2023-06-09T07:44:35.216Z,20.80
2023-06-09T07:47:03.442Z,20.88
2023-06-09T07:49:29.982Z,20.99
2023-06-09T07:51:56.958Z,21.06
2023-06-09T07:54:24.230Z,21.12
2023-06-09T07:56:51.450Z,21.25
2023-06-09T07:59:18.582Z,21.30
2023-06-09T08:01:45.706Z,21.38
2023-06-09T08:04:12.568Z,21.50
2023-06-09T08:06:39.250Z,21.52
2023-06-09T08:09:05.972Z,21.59
2023-06-09T08:11:34.824Z,21.71
2023-06-09T08:14:01.439Z,21.81
2023-06-09T08:16:28.091Z,21.81
2023-06-09T08:18:54.621Z,21.89
2023-06-09T08:21:21.312Z,22.01
2023-06-09T08:23:47.996Z,22.12
2023-06-09T08:26:14.851Z,22.21
2023-06-09T08:28:41.542Z,22.30
2023-06-09T08:31:10.103Z,22.40
2023-06-09T08:33:37.379Z,22.51
2023-06-09T08:36:05.164Z,22.61
2023-06-09T08:38:36.695Z,22.68
2023-06-09T08:41:09.306Z,22.81
2023-06-09T08:43:36.386Z,22.97
2023-06-09T08:46:06.822Z,23.13
2023-06-09T08:48:35.105Z,23.29
2023-06-09T08:51:02.562Z,23.43
2023-06-09T08:53:30.549Z,23.58
2023-06-09T08:55:59.383Z,23.64
2023-06-09T08:58:27.738Z,23.79
2023-06-09T09:00:55.507Z,23.91
2023-06-09T09:03:22.155Z,24.04
2023-06-09T09:05:48.932Z,24.12
2023-06-09T09:08:15.573Z,24.23
2023-06-09T09:10:46.796Z,24.27
2023-06-09T09:13:14.363Z,24.38
2023-06-09T09:15:49.194Z,24.49
2023-06-09T09:18:17.540Z,24.50
2023-06-09T09:20:44.983Z,24.60
2023-06-09T09:23:11.545Z,24.64
2023-06-09T09:25:38.632Z,24.59
2023-06-09T09:28:13.709Z,24.73
2023-06-09T09:30:41.097Z,24.83
2023-06-09T09:33:19.941Z,24.82
2023-06-09T09:35:49.453Z,24.90
2023-06-09T09:38:19.392Z,25.01
2023-06-09T09:40:48.354Z,24.93
2023-06-09T09:43:16.046Z,25.12
2023-06-09T09:46:05.888Z,25.23
2023-06-09T09:48:34.331Z,25.40
2023-06-09T09:51:01.786Z,25.51
2023-06-09T09:53:28.755Z,25.57
2023-06-09T09:55:57.497Z,25.67
2023-06-09T09:58:33.055Z,25.77
2023-06-09T10:01:04.262Z,25.90
2023-06-09T10:03:32.298Z,25.91
2023-06-09T10:06:01.345Z,26.03
2023-06-09T10:08:32.731Z,26.08
2023-06-09T10:11:03.862Z,26.09
2023-06-09T10:13:30.947Z,26.18
2023-06-09T10:15:58.373Z,26.31
2023-06-09T10:18:25.056Z,26.39
2023-06-09T10:20:55.814Z,26.45
2023-06-09T10:23:23.972Z,26.60
2023-06-09T10:25:51.885Z,26.65
2023-06-09T10:28:19.806Z,26.76
2023-06-09T10:30:48.301Z,26.91
2023-06-09T10:33:25.245Z,27.03
2023-06-09T10:35:57.646Z,27.15
2023-06-09T10:38:31.802Z,27.32
2023-06-09T10:41:32.823Z,27.39
2023-06-09T10:44:08.585Z,27.44
2023-06-09T10:46:42.469Z,27.65
2023-06-09T10:49:25.878Z,27.84
2023-06-09T10:51:56.876Z,27.94
2023-06-09T10:54:25.076Z,27.99
2023-06-09T10:56:58.904Z,28.09
2023-06-09T10:59:25.554Z,28.12
2023-06-09T11:02:04.676Z,28.22
2023-06-09T11:04:43.341Z,28.36
2023-06-09T11:07:11.020Z,28.44
2023-06-09T11:09:37.724Z,28.67
2023-06-09T11:12:04.612Z,28.90
2023-06-09T11:14:47.111Z,29.05
2023-06-09T11:17:27.804Z,29.13
2023-06-09T11:20:12.126Z,29.23
2023-06-09T11:22:42.426Z,29.40
2023-06-09T11:25:09.868Z,29.41
2023-06-09T11:27:36.467Z,29.27
2023-06-09T11:30:09.636Z,29.11
2023-06-09T11:32:54.440Z,29.00
2023-06-09T11:35:23.807Z,29.32
2023-06-09T11:37:54.714Z,29.55
2023-06-09T11:40:22.709Z,29.71
2023-06-09T11:42:49.864Z,29.95
2023-06-09T11:45:18.957Z,30.46
2023-06-09T11:47:46.957Z,30.82
2023-06-09T11:50:14.746Z,31.06
2023-06-09T11:52:46.113Z,31.33
2023-06-09T11:55:14.602Z,31.59
2023-06-09T11:57:41.224Z,31.99
2023-06-09T12:00:14.186Z,32.50
2023-06-09T12:02:46.486Z,32.84
2023-06-09T12:05:14.378Z,32.72
2023-06-09T12:07:45.705Z,32.86
2023-06-09T12:10:18.434Z,33.03
2023-06-09T12:12:52.315Z,32.91
2023-06-09T12:15:20.717Z,33.10
2023-06-09T12:17:52.830Z,33.34
2023-06-09T12:20:38.262Z,33.59
2023-06-09T12:23:14.079Z,33.12
2023-06-09T12:25:44.199Z,32.59
2023-06-09T12:28:33.240Z,32.11
2023-06-09T12:31:14.498Z,32.36
2023-06-09T12:33:47.361Z,32.74
2023-06-09T12:36:14.040Z,33.12
2023-06-09T12:38:43.631Z,32.81
2023-06-09T12:41:14.133Z,32.07
2023-06-09T12:43:57.811Z,31.99
2023-06-09T12:46:29.746Z,32.17
2023-06-09T12:49:02.675Z,32.61
2023-06-09T12:51:34.293Z,33.04
2023-06-09T12:54:06.864Z,33.30
2023-06-09T12:56:34.734Z,33.48
2023-06-09T12:59:01.254Z,33.83
2023-06-09T13:01:37.295Z,34.07
2023-06-09T13:04:05.638Z,34.27
2023-06-09T13:06:35.856Z,34.37
2023-06-09T13:09:03.495Z,34.44
2023-06-09T13:11:37.353Z,34.23
2023-06-09T13:14:03.886Z,33.52
2023-06-09T13:16:32.469Z,33.42
2023-06-09T13:18:59.929Z,33.58
2023-06-09T13:21:43.688Z,33.78
2023-06-09T13:24:12.988Z,34.05
2023-06-09T13:26:39.827Z,34.14
2023-06-09T13:29:06.697Z,33.80
2023-06-09T13:31:33.319Z,33.23
2023-06-09T13:33:59.909Z,33.13
2023-06-09T13:36:26.733Z,33.51
2023-06-09T13:38:53.316Z,33.58
2023-06-09T13:41:19.908Z,33.43
2023-06-09T13:43:46.499Z,33.44
2023-06-09T13:46:13.136Z,33.80
2023-06-09T13:48:40.419Z,33.64
2023-06-09T13:51:07.228Z,33.33
2023-06-09T13:53:33.757Z,32.87
2023-06-09T13:56:00.249Z,32.28
2023-06-09T13:58:27.094Z,31.80
2023-06-09T14:01:01.694Z,31.36
2023-06-09T14:03:28.327Z,30.92
2023-06-09T14:05:55.107Z,30.74
2023-06-09T14:08:21.807Z,30.49
2023-06-09T14:10:48.295Z,30.39
2023-06-09T14:13:14.798Z,30.24
2023-06-09T14:15:43.839Z,30.21
2023-06-09T14:18:10.411Z,30.15
2023-06-09T14:20:36.953Z,30.32
2023-06-09T14:23:10.017Z,30.83
2023-06-09T14:25:36.911Z,31.41
2023-06-09T14:28:03.628Z,31.92
2023-06-09T14:30:30.554Z,32.09
2023-06-09T14:32:57.141Z,32.30
2023-06-09T14:35:26.006Z,32.76
2023-06-09T14:37:52.577Z,32.82
2023-06-09T14:40:19.579Z,33.14
2023-06-09T14:42:49.959Z,33.31
2023-06-09T14:45:24.147Z,33.16
2023-06-09T14:47:56.251Z,33.34
2023-06-09T14:50:30.388Z,33.36
2023-06-09T14:52:57.699Z,33.43
2023-06-09T14:55:26.371Z,33.61
2023-06-09T14:57:54.588Z,33.63
2023-06-09T15:00:22.617Z,33.41
2023-06-09T15:02:51.989Z,33.16
2023-06-09T15:05:20.969Z,33.05
2023-06-09T15:07:48.090Z,32.93
2023-06-09T15:10:14.649Z,32.74
2023-06-09T15:12:41.236Z,32.45
2023-06-09T15:15:08.406Z,32.42
2023-06-09T15:17:35.052Z,32.26
2023-06-09T15:20:02.137Z,32.27
2023-06-09T15:22:28.685Z,32.15
2023-06-09T15:24:55.664Z,32.17
2023-06-09T15:27:22.343Z,32.22
2023-06-09T15:29:49.003Z,32.39
2023-06-09T15:32:16.107Z,32.41
2023-06-09T15:34:42.699Z,32.40
2023-06-09T15:37:09.226Z,32.50
2023-06-09T15:39:35.754Z,32.27
2023-06-09T15:42:02.883Z,32.20
2023-06-09T15:44:29.389Z,32.20
2023-06-09T15:46:56.141Z,32.25
2023-06-09T15:49:22.680Z,32.22
2023-06-09T15:51:49.121Z,32.32
2023-06-09T15:54:16.101Z,32.27
2023-06-09T15:56:42.617Z,32.31
2023-06-09T15:59:09.303Z,32.42
2023-06-09T16:01:35.839Z,32.43
2023-06-09T16:04:02.470Z,32.38
2023-06-09T16:06:29.031Z,32.40
2023-06-09T16:08:55.669Z,32.33
2023-06-09T16:11:22.213Z,32.17
2023-06-09T16:13:48.679Z,32.16
2023-06-09T16:16:15.449Z,32.14
2023-06-09T16:18:41.916Z,32.06
2023-06-09T16:21:08.500Z,32.12
2023-06-09T16:23:35.095Z,32.18
2023-06-09T16:26:01.708Z,32.23
2023-06-09T16:28:28.171Z,32.28
2023-06-09T16:30:54.851Z,32.11
2023-06-09T16:33:21.380Z,31.96
2023-06-09T16:35:47.963Z,32.09
2023-06-09T16:38:14.542Z,32.14
2023-06-09T16:40:41.167Z,32.25
2023-06-09T16:43:07.784Z,32.22
2023-06-09T16:45:34.328Z,32.24
2023-06-09T16:48:01.092Z,32.34
2023-06-09T16:50:27.742Z,32.14
2023-06-09T16:52:55.483Z,32.04
2023-06-09T16:55:22.389Z,31.87
2023-06-09T16:57:48.897Z,31.80
2023-06-09T17:00:16.099Z,31.71
2023-06-09T17:02:42.834Z,31.54
2023-06-09T17:05:10.339Z,31.17
2023-06-09T17:07:38.028Z,30.94
2023-06-09T17:10:05.004Z,30.66
2023-06-09T17:12:33.236Z,30.52
2023-06-09T17:15:00.525Z,30.21
2023-06-09T17:17:27.095Z,30.15
2023-06-09T17:19:53.748Z,29.88
2023-06-09T17:22:21.535Z,29.68
2023-06-09T17:24:48.187Z,29.50
2023-06-09T17:27:14.742Z,29.44
2023-06-09T17:29:41.309Z,29.31
2023-06-09T17:32:09.478Z,29.22
2023-06-09T17:34:36.066Z,28.93
2023-06-09T17:37:02.602Z,28.77
2023-06-09T17:39:31.154Z,28.67
2023-06-09T17:41:58.174Z,28.67
2023-06-09T17:44:24.661Z,28.57
2023-06-09T17:46:51.190Z,28.54
2023-06-09T17:49:17.732Z,28.40
2023-06-09T17:51:44.248Z,28.27
2023-06-09T17:54:10.748Z,28.18
2023-06-09T17:56:37.342Z,28.08
2023-06-09T17:59:03.917Z,28.07
2023-06-09T18:01:30.499Z,27.89
2023-06-09T18:03:57.038Z,27.81
2023-06-09T18:06:23.532Z,27.80
2023-06-09T18:08:50.250Z,27.67
2023-06-09T18:11:16.857Z,27.58
2023-06-09T18:13:44.563Z,27.50
2023-06-09T18:16:13.978Z,27.32
2023-06-09T18:18:40.555Z,27.29
2023-06-09T18:21:09.201Z,27.18
2023-06-09T18:23:36.134Z,27.20
2023-06-09T18:26:02.728Z,27.17
2023-06-09T18:28:29.307Z,27.11
2023-06-09T18:30:55.955Z,27.05
2023-06-09T18:33:23.622Z,26.96
2023-06-09T18:35:50.352Z,26.95
2023-06-09T18:38:16.983Z,26.89
2023-06-09T18:40:43.532Z,26.87
2023-06-09T18:43:10.053Z,26.87
2023-06-09T18:45:37.765Z,26.78
2023-06-09T18:48:04.387Z,26.72
2023-06-09T18:50:31.060Z,26.63
2023-06-09T18:52:57.673Z,26.55
2023-06-09T18:55:24.180Z,26.42
2023-06-09T18:57:50.682Z,26.36
2023-06-09T19:00:17.445Z,26.26
2023-06-09T19:02:44.895Z,26.13
2023-06-09T19:05:11.896Z,26.06
2023-06-09T19:07:38.746Z,26.00
2023-06-09T19:10:05.823Z,26.01
2023-06-09T19:12:32.336Z,25.87
2023-06-09T19:14:59.441Z,25.83
2023-06-09T19:17:27.104Z,25.73
2023-06-09T19:19:53.620Z,25.73
2023-06-09T19:22:22.259Z,25.64
2023-06-09T19:24:49.123Z,25.57
2023-06-09T19:27:15.700Z,25.51
2023-06-09T19:29:42.234Z,25.44
2023-06-09T19:32:08.839Z,25.40
2023-06-09T19:34:35.354Z,25.32
2023-06-09T19:37:03.707Z,25.32
2023-06-09T19:39:31.320Z,25.23
2023-06-09T19:41:57.799Z,25.18
2023-06-09T19:44:24.292Z,25.05
2023-06-09T19:46:51.005Z,25.04
2023-06-09T19:49:17.637Z,24.94
2023-06-09T19:51:44.531Z,24.83
2023-06-09T19:54:11.538Z,24.78
2023-06-09T19:56:47.109Z,24.71
2023-06-09T19:59:17.014Z,24.65
2023-06-09T20:01:44.954Z,24.60
2023-06-09T20:04:11.639Z,24.54
2023-06-09T20:06:39.678Z,24.48
2023-06-09T20:09:06.181Z,24.41
2023-06-09T20:11:33.394Z,24.33
2023-06-09T20:13:59.891Z,24.26
2023-06-09T20:16:26.570Z,24.21
2023-06-09T20:18:53.189Z,24.14
2023-06-09T20:21:21.740Z,24.05
2023-06-09T20:23:49.915Z,23.99
2023-06-09T20:26:19.003Z,23.96
2023-06-09T20:28:46.047Z,23.94
2023-06-09T20:31:12.936Z,23.88
2023-06-09T20:33:45.713Z,23.79
2023-06-09T20:36:12.802Z,23.76
2023-06-09T20:38:39.664Z,23.66
2023-06-09T20:41:06.574Z,23.60
2023-06-09T20:43:33.564Z,23.58
2023-06-09T20:46:01.822Z,23.53
2023-06-09T20:48:32.528Z,23.48
2023-06-09T20:50:59.046Z,23.38
2023-06-09T20:53:25.954Z,23.35
2023-06-09T20:55:52.459Z,23.26
2023-06-09T20:58:19.465Z,23.26
2023-06-09T21:00:49.864Z,23.10
2023-06-09T21:03:17.240Z,23.11
2023-06-09T21:05:44.582Z,23.04
2023-06-09T21:08:11.762Z,22.98
2023-06-09T21:10:38.371Z,22.94
2023-06-09T21:13:04.893Z,22.84
2023-06-09T21:15:31.438Z,22.79
2023-06-09T21:17:58.171Z,22.77
2023-06-09T21:20:24.996Z,22.68
2023-06-09T21:22:51.526Z,22.59
2023-06-09T21:25:18.078Z,22.50
2023-06-09T21:27:44.924Z,22.46
2023-06-09T21:30:11.804Z,22.45
2023-06-09T21:32:38.730Z,22.41
2023-06-09T21:35:07.130Z,22.23
2023-06-09T21:37:34.688Z,22.22
2023-06-09T21:40:03.271Z,22.20
2023-06-09T21:42:29.769Z,22.19
2023-06-09T21:44:56.349Z,22.16
2023-06-09T21:47:22.951Z,22.13
2023-06-09T21:49:49.540Z,22.08
2023-06-09T21:52:16.130Z,22.06
2023-06-09T21:54:42.744Z,22.02
2023-06-09T21:57:11.042Z,21.92
2023-06-09T21:59:37.838Z,21.89
2023-06-09T22:02:05.120Z,21.86
2023-06-09T22:04:31.910Z,21.81
2023-06-09T22:06:58.472Z,21.77
2023-06-09T22:09:24.969Z,21.73
2023-06-09T22:11:51.888Z,21.66
2023-06-09T22:14:18.509Z,21.62
2023-06-09T22:16:49.877Z,21.57
2023-06-09T22:19:17.945Z,21.53
2023-06-09T22:21:45.075Z,21.45
2023-06-09T22:24:12.889Z,21.39
2023-06-09T22:26:58.609Z,21.34
2023-06-09T22:29:26.585Z,21.32
2023-06-09T22:31:53.131Z,21.26
2023-06-09T22:34:19.787Z,21.23
2023-06-09T22:36:46.362Z,21.12
2023-06-09T22:39:14.335Z,21.11
2023-06-09T22:41:41.258Z,21.05
2023-06-09T22:44:08.087Z,20.96
2023-06-09T22:46:34.995Z,20.90
2023-06-09T22:49:04.184Z,20.81
2023-06-09T22:51:31.065Z,20.81
2023-06-09T22:53:59.556Z,20.80
2023-06-09T22:56:26.906Z,20.76
2023-06-09T22:58:53.632Z,20.68
2023-06-09T23:01:20.170Z,20.64
2023-06-09T23:03:46.876Z,20.64
2023-06-09T23:06:15.077Z,20.54
2023-06-09T23:08:41.701Z,20.54
2023-06-09T23:11:08.278Z,20.53
2023-06-09T23:13:34.812Z,20.48
2023-06-09T23:16:01.651Z,20.47
2023-06-09T23:18:30.545Z,20.42
2023-06-09T23:20:57.208Z,20.39
2023-06-09T23:23:26.874Z,20.34
2023-06-09T23:25:53.357Z,20.27
2023-06-09T23:28:19.868Z,20.20
2023-06-09T23:30:46.337Z,20.15
2023-06-09T23:33:13.675Z,20.10
2023-06-09T23:35:40.396Z,20.07
2023-06-09T23:38:06.904Z,20.01
2023-06-09T23:40:33.424Z,19.98
2023-06-09T23:42:59.919Z,19.92
2023-06-09T23:45:26.743Z,19.91
2023-06-09T23:47:53.469Z,19.86
2023-06-09T23:50:20.004Z,19.81
2023-06-09T23:52:46.514Z,19.78
2023-06-09T23:55:13.324Z,19.79
2023-06-09T23:57:40.014Z,19.77
